Kremlin, Oklahoma
Current Conditions -  °F | °C
As of 11:50 AM on Saturday 20 Dec 2014 (Local Time) from KWDG Reporting Station
Overcast Overcast  
Wind Chill: 39°   Ceiling: 3500
Heat Index: 46°   Visibility: 7mi
Dew Point: 39°   Wind: 17mph
Humidity: 76%   Direction: 210°SSW
Pressure: 30.17"   Gusts: NA
Location:  36.55°N, 97.83°W
Report Text: KWDG 201750Z 21015KT 7SM OVC035 08/04 A3017
Loading
Personal Weather Stations






























Interactive Weather Map New forecast layout! Learn more

10-Day Weather Forecast

Advertisements
Track Severe Weather on mobile